createdAt,value
2019-04-11T00:01:10.113Z,9.43
2019-04-11T00:06:15.589Z,9.93
2019-04-11T00:11:21.894Z,10.20
2019-04-11T00:16:28.953Z,10.33
2019-04-11T00:21:35.637Z,10.27
2019-04-11T00:26:41.332Z,11.13
2019-04-11T00:31:47.947Z,10.03
2019-04-11T00:36:54.800Z,10.70
2019-04-11T00:42:00.292Z,10.30
2019-04-11T00:47:06.852Z,10.50
2019-04-11T00:52:12.196Z,10.53
2019-04-11T00:57:17.528Z,10.03
2019-04-11T01:02:23.166Z,10.13
2019-04-11T01:07:29.103Z,10.37
2019-04-11T01:12:34.489Z,11.07
2019-04-11T01:17:39.824Z,9.77
2019-04-11T01:22:45.132Z,9.83
2019-04-11T01:27:51.548Z,9.43
2019-04-11T01:32:56.980Z,10.40
2019-04-11T01:38:02.286Z,9.40
2019-04-11T01:43:08.121Z,10.70
2019-04-11T01:48:19.509Z,11.90
2019-04-11T01:53:24.936Z,10.80
2019-04-11T01:58:30.924Z,11.13
2019-04-11T02:03:55.310Z,10.40
2019-04-11T02:09:01.836Z,10.13
2019-04-11T02:14:15.568Z,10.67
2019-04-11T02:19:16.232Z,10.20
2019-04-11T02:24:30.024Z,10.27
2019-04-11T02:29:35.484Z,10.90
2019-04-11T02:34:41.184Z,10.90
2019-04-11T02:39:47.357Z,10.17
2019-04-11T02:45:09.244Z,10.77
2019-04-11T02:50:00.891Z,10.50
2019-04-11T02:55:09.704Z,11.23
2019-04-11T03:00:13.363Z,11.13
2019-04-11T03:05:20.890Z,11.93
2019-04-11T03:10:27.205Z,11.60
2019-04-11T03:15:48.824Z,10.47
2019-04-11T03:20:48.132Z,11.47
2019-04-11T03:25:49.871Z,11.60
2019-04-11T03:31:26.310Z,11.07
2019-04-11T03:41:25.276Z,10.93
2019-04-11T03:46:33.880Z,12.20
2019-04-11T03:51:25.624Z,10.90
2019-04-11T03:56:33.003Z,11.23
2019-04-11T04:01:39.870Z,11.93
2019-04-11T04:06:45.876Z,12.60
2019-04-11T04:11:54.577Z,12.70
2019-04-11T04:17:19.285Z,13.13
2019-04-11T04:22:32.230Z,11.80
2019-04-11T04:27:38.770Z,11.50
2019-04-11T04:32:45.182Z,12.40
2019-04-11T04:37:51.913Z,12.90
2019-04-11T04:42:59.165Z,13.63
2019-04-11T04:48:11.165Z,12.87
2019-04-11T04:53:13.568Z,14.53
2019-04-11T04:58:24.320Z,11.93
2019-04-11T05:03:27.725Z,12.53
2019-04-11T05:08:34.757Z,13.73
2019-04-11T05:13:41.948Z,12.23
2019-04-11T05:18:48.463Z,12.83
2019-04-11T05:23:55.184Z,12.33
2019-04-11T05:29:01.210Z,12.90
2019-04-11T05:34:07.798Z,12.97
2019-04-11T05:39:15.948Z,14.53
2019-04-11T05:44:21.008Z,14.70
2019-04-11T05:49:44.993Z,13.53
2019-04-11T05:54:56.066Z,13.43
2019-04-11T06:00:01.391Z,13.37
2019-04-11T06:05:13.250Z,12.10
2019-04-11T06:10:24.099Z,13.33
2019-04-11T06:15:36.215Z,12.13
2019-04-11T06:20:51.951Z,13.03
2019-04-11T06:26:28.546Z,14.00
2019-04-11T06:31:51.621Z,14.30
2019-04-11T06:37:14.641Z,13.93
2019-04-11T06:42:39.192Z,13.17
2019-04-11T06:48:23.726Z,12.57
2019-04-11T06:53:36.399Z,12.17
2019-04-11T06:58:47.597Z,14.20
2019-04-11T07:03:57.501Z,13.37
2019-04-11T07:09:25.936Z,14.23
2019-04-11T07:14:39.753Z,13.10
2019-04-11T07:19:57.494Z,12.80
2019-04-11T07:25:22.298Z,13.90
2019-04-11T07:31:00.368Z,14.20
2019-04-11T07:36:23.403Z,14.37
2019-04-11T07:41:58.085Z,13.73
2019-04-11T07:47:28.207Z,13.27
2019-04-11T07:52:40.003Z,13.97
2019-04-11T07:57:49.029Z,14.90
2019-04-11T08:03:07.958Z,15.23
2019-04-11T08:08:30.244Z,15.00
2019-04-11T08:13:42.885Z,15.70
2019-04-11T08:19:17.244Z,15.90
2019-04-11T08:24:30.051Z,14.83
2019-04-11T08:29:36.021Z,14.20
2019-04-11T08:34:49.097Z,14.50
2019-04-11T08:39:55.791Z,16.07
2019-04-11T08:45:01.096Z,15.53
2019-04-11T08:50:06.987Z,15.03
2019-04-11T08:55:42.075Z,14.53
2019-04-11T09:00:46.277Z,15.57
2019-04-11T09:06:28.403Z,15.77
2019-04-11T09:11:39.517Z,14.90
2019-04-11T09:17:03.841Z,15.23
2019-04-11T09:22:35.353Z,15.97
2019-04-11T09:27:53.962Z,15.60
2019-04-11T09:33:35.072Z,16.87
2019-04-11T09:38:42.290Z,16.23
2019-04-11T09:43:48.458Z,17.20
2019-04-11T09:49:12.348Z,16.23
2019-04-11T09:54:36.955Z,16.50
2019-04-11T09:59:47.675Z,17.60
2019-04-11T10:04:54.365Z,17.67
2019-04-11T10:10:17.611Z,17.33
2019-04-11T10:15:33.732Z,19.10
2019-04-11T10:20:40.499Z,18.10
2019-04-11T10:25:50.083Z,17.67
2019-04-11T10:31:20.547Z,18.07
2019-04-11T10:36:27.838Z,18.17
2019-04-11T10:41:37.950Z,18.63
2019-04-11T10:46:51.460Z,18.67
2019-04-11T10:52:04.375Z,19.13
2019-04-11T10:57:29.881Z,18.07
2019-04-11T11:02:57.842Z,18.53
2019-04-11T11:08:13.306Z,17.87
2019-04-11T11:13:50.134Z,19.73
2019-04-11T11:19:33.551Z,17.00
2019-04-11T11:24:40.250Z,18.73
2019-04-11T11:30:04.416Z,18.47
2019-04-11T11:35:32.337Z,18.37
2019-04-11T11:40:54.227Z,18.10
2019-04-11T11:46:17.832Z,18.63
2019-04-11T11:51:33.280Z,19.60
2019-04-11T11:56:40.271Z,20.33
2019-04-11T12:02:04.706Z,19.70
2019-04-11T12:07:12.643Z,19.70
2019-04-11T12:12:23.863Z,20.17
2019-04-11T12:18:07.428Z,19.53
2019-04-11T12:23:29.368Z,20.57
2019-04-11T12:28:52.486Z,20.17
2019-04-11T12:34:30.261Z,21.83
2019-04-11T12:40:09.849Z,22.07
2019-04-11T12:45:32.853Z,21.40
2019-04-11T12:50:56.446Z,22.07
2019-04-11T12:56:33.243Z,21.70
2019-04-11T13:01:56.300Z,22.37
2019-04-11T13:07:23.735Z,21.87
2019-04-11T13:12:45.286Z,20.53
2019-04-11T13:18:18.996Z,21.17
2019-04-11T13:23:40.599Z,20.77
2019-04-11T13:28:47.867Z,22.70
2019-04-11T13:33:56.070Z,20.60
2019-04-11T13:39:04.232Z,23.57
2019-04-11T13:44:22.087Z,22.43
2019-04-11T13:49:46.491Z,20.77
2019-04-11T13:55:13.411Z,20.47
2019-04-11T14:00:49.941Z,20.67
2019-04-11T14:05:56.667Z,20.30
2019-04-11T14:11:11.220Z,20.63
2019-04-11T14:16:19.334Z,20.70
2019-04-11T14:21:25.125Z,20.50
2019-04-11T14:26:36.430Z,19.90
2019-04-11T14:31:57.151Z,19.70
2019-04-11T14:37:22.867Z,19.80
2019-04-11T14:42:48.002Z,18.60
2019-04-11T14:48:11.373Z,17.97
2019-04-11T14:53:33.159Z,19.93
2019-04-11T14:58:56.443Z,18.30
2019-04-11T15:04:20.872Z,19.37
2019-04-11T15:09:39.261Z,19.17
2019-04-11T15:15:06.728Z,17.43
2019-04-11T15:20:54.988Z,18.77
2019-04-11T15:26:11.239Z,17.63
2019-04-11T15:31:39.570Z,18.33
2019-04-11T15:36:45.998Z,18.73
2019-04-11T15:41:58.143Z,17.63
2019-04-11T15:47:00.879Z,16.50
2019-04-11T15:52:15.681Z,17.90
2019-04-11T15:57:53.130Z,16.47
2019-04-11T16:03:16.453Z,17.23
2019-04-11T16:08:29.531Z,16.80
2019-04-11T16:13:50.847Z,17.07
2019-04-11T16:19:14.741Z,16.87
2019-04-11T16:24:28.171Z,17.10
2019-04-11T16:29:41.077Z,16.63
2019-04-11T16:34:58.885Z,16.43
2019-04-11T16:40:32.263Z,16.63
2019-04-11T16:45:57.493Z,16.23
2019-04-11T16:51:05.605Z,16.30
2019-04-11T16:56:12.574Z,16.30
2019-04-11T17:01:17.645Z,16.87
2019-04-11T17:06:45.112Z,15.97
2019-04-11T17:11:50.614Z,14.60
2019-04-11T17:16:56.316Z,17.90
2019-04-11T17:22:03.086Z,17.47
2019-04-11T17:27:08.967Z,17.53
2019-04-11T17:32:14.642Z,17.23
2019-04-11T17:37:20.218Z,19.07
2019-04-11T17:42:31.026Z,15.53
2019-04-11T17:47:36.654Z,17.10
2019-04-11T17:52:42.328Z,18.80
2019-04-11T17:57:48.000Z,16.57
2019-04-11T18:02:53.769Z,16.30
2019-04-11T18:07:59.503Z,21.27
2019-04-11T18:13:06.072Z,15.03
2019-04-11T18:18:11.623Z,13.87
2019-04-11T18:23:19.673Z,14.73
2019-04-11T18:28:24.376Z,14.53
2019-04-11T18:33:31.763Z,16.03
2019-04-11T18:38:37.071Z,14.83
2019-04-11T18:43:42.387Z,14.87
2019-04-11T18:48:47.904Z,13.87
2019-04-11T18:53:53.301Z,13.67
2019-04-11T18:58:58.906Z,13.53
2019-04-11T19:04:04.259Z,13.33
2019-04-11T19:09:13.842Z,12.87
2019-04-11T19:14:19.164Z,13.27
2019-04-11T19:19:27.304Z,14.10
2019-04-11T19:24:35.603Z,13.57
2019-04-11T19:29:40.434Z,13.33
2019-04-11T19:34:46.035Z,13.43
2019-04-11T19:39:51.793Z,13.37
2019-04-11T19:44:57.299Z,13.00
2019-04-11T19:50:02.912Z,14.23
2019-04-11T19:55:24.387Z,13.10
2019-04-11T20:00:29.990Z,12.13
2019-04-11T20:05:35.527Z,13.60
2019-04-11T20:10:41.091Z,13.90
2019-04-11T20:15:46.616Z,12.87
2019-04-11T20:20:52.391Z,13.20
2019-04-11T20:25:58.957Z,13.43
2019-04-11T20:31:04.614Z,11.70
2019-04-11T20:36:11.542Z,10.77
2019-04-11T20:41:17.843Z,10.80
2019-04-11T20:46:23.415Z,11.03
2019-04-11T20:51:29.472Z,10.37
2019-04-11T20:56:35.154Z,9.90
2019-04-11T21:01:42.037Z,8.60
2019-04-11T21:06:48.439Z,7.93
2019-04-11T21:11:54.695Z,6.63
2019-04-11T21:17:00.486Z,6.33
2019-04-11T21:22:06.528Z,5.97
2019-04-11T21:27:12.003Z,6.40
2019-04-11T21:32:17.388Z,6.03
2019-04-11T21:37:23.686Z,5.67
2019-04-11T21:42:29.162Z,5.53
2019-04-11T21:47:37.389Z,5.83
2019-04-11T21:52:44.268Z,5.73
2019-04-11T21:57:50.396Z,6.17
2019-04-11T22:02:55.960Z,6.03
2019-04-11T22:08:03.697Z,6.17
2019-04-11T22:13:10.046Z,6.30
2019-04-11T22:18:16.814Z,5.63
2019-04-11T22:23:22.333Z,5.53
2019-04-11T22:28:27.628Z,5.83
2019-04-11T22:34:01.127Z,5.83
2019-04-11T22:39:10.440Z,5.63
2019-04-11T22:44:15.764Z,5.87
2019-04-11T22:49:21.055Z,6.23
2019-04-11T22:54:26.375Z,6.40
2019-04-11T22:59:31.705Z,6.17
2019-04-11T23:04:37.996Z,5.67
2019-04-11T23:09:43.392Z,6.00
2019-04-11T23:14:48.707Z,5.93
2019-04-11T23:19:54.006Z,6.33
2019-04-11T23:24:59.299Z,5.93
2019-04-11T23:30:05.019Z,6.20
2019-04-11T23:35:10.324Z,6.60
2019-04-11T23:40:15.608Z,5.73
2019-04-11T23:45:24.103Z,5.33
2019-04-11T23:50:29.483Z,6.03
2019-04-11T23:55:34.778Z,5.83
